SIA178 WSSS-VVTS
Flight info
| Callsign | SIA178 |
|---|---|
| Flight time | 1h 33m |
| Altitude | 40000 |
| Route | VMR6A VMR M771 DUDIS/K0900F400 L644 CN/K0787F190 W9 NIXIV NIXIV5J |
| Aircraft | A359/H-SDE1E2E3GHIJ1J2J3J5M1P2RWXYZ/LB1D1 |
Departure
| Time | 2026-05-06 09:19 |
|---|---|
| Airport | Singapore Changi Airport (WSSS) |
Arrival
| Time | 2026-05-06 10:53 |
|---|---|
| Airport | Tan Son Nhat International Airport (VVTS) |
| Time | Latitude | Longitude | Altitude | Speed | Heading |
|---|---|---|---|---|---|
| 2026-05-06 08:54 | 1.35926 | 103.99207 | 36 ft | 0 kts | 292° |
| 2026-05-06 08:56 | 1.35928 | 103.99201 | 37 ft | 0 kts | 293° |
| 2026-05-06 09:11 | 1.35921 | 103.99223 | 35 ft | 4 kts | 278° |
| 2026-05-06 09:11 | 1.35916 | 103.99248 | 37 ft | 2 kts | 293° |
| 2026-05-06 09:11 | 1.35905 | 103.99266 | 32 ft | 4 kts | 334° |
| 2026-05-06 09:12 | 1.35883 | 103.99267 | 33 ft | 3 kts | 23° |
| 2026-05-06 09:12 | 1.35859 | 103.99257 | 34 ft | 4 kts | 23° |
| 2026-05-06 09:12 | 1.35852 | 103.99254 | 37 ft | 4 kts | 23° |
| 2026-05-06 09:15 | 1.35854 | 103.99255 | 37 ft | 1 kts | 23° |
| 2026-05-06 09:15 | 1.35882 | 103.99266 | 37 ft | 8 kts | 22° |
| 2026-05-06 09:15 | 1.35951 | 103.99295 | 37 ft | 14 kts | 23° |
| 2026-05-06 09:15 | 1.36006 | 103.99367 | 37 ft | 15 kts | 107° |
| 2026-05-06 09:16 | 1.35964 | 103.99468 | 37 ft | 17 kts | 113° |
| 2026-05-06 09:16 | 1.35930 | 103.99575 | 36 ft | 11 kts | 73° |
| 2026-05-06 09:16 | 1.35996 | 103.99615 | 37 ft | 12 kts | 23° |
| 2026-05-06 09:16 | 1.36079 | 103.99651 | 36 ft | 14 kts | 23° |
| 2026-05-06 09:17 | 1.36176 | 103.99692 | 35 ft | 16 kts | 23° |
| 2026-05-06 09:17 | 1.36250 | 103.99750 | 36 ft | 11 kts | 88° |
| 2026-05-06 09:17 | 1.36223 | 103.99817 | 36 ft | 12 kts | 112° |
| 2026-05-06 09:17 | 1.36187 | 103.99889 | 36 ft | 8 kts | 142° |
| 2026-05-06 09:18 | 1.36172 | 103.99888 | 36 ft | 0 kts | 202° |
| 2026-05-06 09:18 | 1.36171 | 103.99888 | 36 ft | 0 kts | 203° |
| 2026-05-06 09:18 | 1.36083 | 103.99850 | 37 ft | 43 kts | 203° |
| 2026-05-06 09:18 | 1.35576 | 103.99636 | 37 ft | 112 kts | 202° |
| 2026-05-06 09:19 | 1.34668 | 103.99256 | 37 ft | 169 kts | 203° |
| 2026-05-06 09:19 | 1.33550 | 103.98785 | 663 ft | 170 kts | 204° |
| 2026-05-06 09:19 | 1.32492 | 103.98337 | 1395 ft | 169 kts | 203° |
| 2026-05-06 09:19 | 1.31333 | 103.97845 | 1670 ft | 196 kts | 202° |
| 2026-05-06 09:20 | 1.29976 | 103.97271 | 1910 ft | 227 kts | 203° |
| 2026-05-06 09:20 | 1.28441 | 103.96620 | 2264 ft | 250 kts | 203° |
| 2026-05-06 09:20 | 1.26811 | 103.95932 | 2922 ft | 258 kts | 203° |
| 2026-05-06 09:20 | 1.25123 | 103.95268 | 3652 ft | 263 kts | 198° |
| 2026-05-06 09:21 | 1.23296 | 103.95068 | 4368 ft | 268 kts | 173° |
| 2026-05-06 09:21 | 1.21544 | 103.95710 | 5095 ft | 272 kts | 146° |
| 2026-05-06 09:21 | 1.20047 | 103.96898 | 5843 ft | 276 kts | 139° |
| 2026-05-06 09:21 | 1.18606 | 103.98185 | 6601 ft | 279 kts | 138° |
| 2026-05-06 09:22 | 1.17218 | 103.99555 | 7341 ft | 282 kts | 129° |
| 2026-05-06 09:22 | 1.16326 | 104.01291 | 8119 ft | 284 kts | 104° |
| 2026-05-06 09:22 | 1.16292 | 104.03247 | 8938 ft | 285 kts | 77° |
| 2026-05-06 09:22 | 1.17107 | 104.05022 | 9735 ft | 289 kts | 56° |
| 2026-05-06 09:23 | 1.18335 | 104.06635 | 10342 ft | 298 kts | 52° |
| 2026-05-06 09:23 | 1.19723 | 104.08266 | 10638 ft | 318 kts | 46° |
| 2026-05-06 09:23 | 1.21554 | 104.09629 | 10902 ft | 338 kts | 32° |
| 2026-05-06 09:23 | 1.23660 | 104.10803 | 11169 ft | 355 kts | 28° |
| 2026-05-06 09:24 | 1.26015 | 104.11651 | 11604 ft | 365 kts | 12° |
| 2026-05-06 09:24 | 1.28567 | 104.11732 | 12177 ft | 372 kts | 353° |
| 2026-05-06 09:24 | 1.31037 | 104.10934 | 12754 ft | 378 kts | 333° |
| 2026-05-06 09:24 | 1.33192 | 104.09409 | 13349 ft | 383 kts | 321° |
| 2026-05-06 09:25 | 1.35229 | 104.07670 | 13884 ft | 387 kts | 320° |
| 2026-05-06 09:25 | 1.37248 | 104.05924 | 14376 ft | 390 kts | 320° |
| 2026-05-06 09:25 | 1.39316 | 104.04149 | 14866 ft | 393 kts | 320° |
| 2026-05-06 09:25 | 1.41507 | 104.02497 | 15388 ft | 395 kts | 331° |
| 2026-05-06 09:26 | 1.44027 | 104.01398 | 15898 ft | 397 kts | 342° |
| 2026-05-06 09:26 | 1.46629 | 104.00540 | 16401 ft | 399 kts | 343° |
| 2026-05-06 09:26 | 1.49292 | 103.99692 | 16873 ft | 402 kts | 343° |
| 2026-05-06 09:26 | 1.51971 | 103.98838 | 17375 ft | 405 kts | 343° |
| 2026-05-06 09:27 | 1.54677 | 103.97969 | 17851 ft | 408 kts | 343° |
| 2026-05-06 09:27 | 1.57400 | 103.97091 | 18292 ft | 411 kts | 343° |
| 2026-05-06 09:27 | 1.60136 | 103.96208 | 18700 ft | 414 kts | 343° |
| 2026-05-06 09:27 | 1.62891 | 103.95317 | 19105 ft | 417 kts | 343° |
| 2026-05-06 09:28 | 1.65625 | 103.94432 | 19517 ft | 419 kts | 343° |
| 2026-05-06 09:28 | 1.68409 | 103.93531 | 19915 ft | 422 kts | 343° |
| 2026-05-06 09:28 | 1.71208 | 103.92625 | 20333 ft | 424 kts | 343° |
| 2026-05-06 09:28 | 1.74032 | 103.91735 | 20732 ft | 426 kts | 346° |
| 2026-05-06 09:29 | 1.76941 | 103.91149 | 21134 ft | 427 kts | 355° |
| 2026-05-06 09:29 | 1.79913 | 103.90895 | 21557 ft | 429 kts | 358° |
| 2026-05-06 09:29 | 1.82902 | 103.90709 | 21967 ft | 431 kts | 358° |
| 2026-05-06 09:29 | 1.85913 | 103.90526 | 22391 ft | 434 kts | 358° |
| 2026-05-06 09:30 | 1.88911 | 103.90341 | 22758 ft | 438 kts | 358° |
| 2026-05-06 09:30 | 1.91961 | 103.90150 | 23171 ft | 440 kts | 358° |
| 2026-05-06 09:30 | 1.95029 | 103.89957 | 23537 ft | 443 kts | 358° |
| 2026-05-06 09:30 | 1.98114 | 103.89761 | 23864 ft | 445 kts | 358° |
| 2026-05-06 09:31 | 2.01217 | 103.89564 | 24204 ft | 448 kts | 358° |
| 2026-05-06 09:31 | 2.04339 | 103.89366 | 24547 ft | 450 kts | 358° |
| 2026-05-06 09:31 | 2.07481 | 103.89166 | 24906 ft | 453 kts | 358° |
| 2026-05-06 09:31 | 2.10634 | 103.88965 | 25280 ft | 455 kts | 358° |
| 2026-05-06 09:32 | 2.13806 | 103.88763 | 25656 ft | 458 kts | 358° |
| 2026-05-06 09:32 | 2.16996 | 103.88560 | 26048 ft | 460 kts | 358° |
| 2026-05-06 09:32 | 2.20205 | 103.88355 | 26485 ft | 463 kts | 358° |
| 2026-05-06 09:32 | 2.23393 | 103.88152 | 26882 ft | 466 kts | 358° |
| 2026-05-06 09:33 | 2.26639 | 103.87946 | 27276 ft | 469 kts | 358° |
| 2026-05-06 09:33 | 2.29915 | 103.87738 | 27690 ft | 472 kts | 358° |
| 2026-05-06 09:33 | 2.33208 | 103.87553 | 28110 ft | 475 kts | 0° |
| 2026-05-06 09:33 | 2.36513 | 103.87703 | 28511 ft | 475 kts | 9° |
| 2026-05-06 09:34 | 2.39743 | 103.88411 | 28913 ft | 476 kts | 19° |
| 2026-05-06 09:34 | 2.42796 | 103.89682 | 29295 ft | 476 kts | 30° |
| 2026-05-06 09:34 | 2.45689 | 103.91318 | 29680 ft | 478 kts | 32° |
| 2026-05-06 09:34 | 2.48505 | 103.93037 | 30022 ft | 481 kts | 33° |
| 2026-05-06 09:35 | 2.51350 | 103.94832 | 30337 ft | 483 kts | 34° |
| 2026-05-06 09:35 | 2.54199 | 103.96646 | 30655 ft | 486 kts | 34° |
| 2026-05-06 09:35 | 2.57058 | 103.98462 | 30966 ft | 488 kts | 33° |
| 2026-05-06 09:35 | 2.59940 | 104.00281 | 31251 ft | 491 kts | 33° |
| 2026-05-06 09:36 | 2.62853 | 104.02107 | 31486 ft | 495 kts | 33° |
| 2026-05-06 09:36 | 2.64792 | 104.03318 | 31658 ft | 496 kts | 33° |
| 2026-05-06 09:36 | 2.67730 | 104.05149 | 31952 ft | 498 kts | 33° |
| 2026-05-06 09:36 | 2.70682 | 104.06986 | 32221 ft | 500 kts | 33° |
| 2026-05-06 09:37 | 2.73650 | 104.08831 | 32470 ft | 503 kts | 32° |
| 2026-05-06 09:37 | 2.77599 | 104.11288 | 32797 ft | 506 kts | 32° |
| 2026-05-06 09:37 | 2.79625 | 104.12548 | 32974 ft | 507 kts | 32° |
| 2026-05-06 09:37 | 2.82623 | 104.14414 | 33290 ft | 507 kts | 32° |
| 2026-05-06 09:38 | 2.85575 | 104.16252 | 33679 ft | 505 kts | 32° |
| 2026-05-06 09:38 | 2.88560 | 104.18111 | 34007 ft | 505 kts | 32° |
| 2026-05-06 09:38 | 2.91543 | 104.19968 | 34328 ft | 503 kts | 32° |
| 2026-05-06 09:38 | 2.94510 | 104.21816 | 34646 ft | 502 kts | 32° |
| 2026-05-06 09:39 | 2.97481 | 104.23667 | 34965 ft | 501 kts | 32° |
| 2026-05-06 09:39 | 3.00440 | 104.25510 | 35230 ft | 501 kts | 33° |
| 2026-05-06 09:39 | 3.03400 | 104.27354 | 35548 ft | 499 kts | 33° |
| 2026-05-06 09:39 | 3.06342 | 104.29188 | 35874 ft | 498 kts | 33° |
| 2026-05-06 09:40 | 3.09267 | 104.31032 | 36187 ft | 496 kts | 33° |
| 2026-05-06 09:40 | 3.12187 | 104.32885 | 36495 ft | 495 kts | 33° |
| 2026-05-06 09:40 | 3.17975 | 104.36544 | 37082 ft | 493 kts | 33° |
| 2026-05-06 09:41 | 3.20892 | 104.38354 | 37392 ft | 491 kts | 33° |
| 2026-05-06 09:41 | 3.23804 | 104.40153 | 37680 ft | 490 kts | 33° |
| 2026-05-06 09:41 | 3.26675 | 104.41926 | 37949 ft | 489 kts | 33° |
| 2026-05-06 09:41 | 3.29577 | 104.43721 | 38229 ft | 488 kts | 33° |
| 2026-05-06 09:42 | 3.32434 | 104.45491 | 38492 ft | 487 kts | 33° |
| 2026-05-06 09:42 | 3.35304 | 104.47271 | 38740 ft | 485 kts | 33° |
| 2026-05-06 09:42 | 3.38175 | 104.49053 | 38930 ft | 484 kts | 33° |
| 2026-05-06 09:42 | 3.41051 | 104.50839 | 39114 ft | 483 kts | 33° |
| 2026-05-06 09:43 | 3.43869 | 104.52590 | 39266 ft | 483 kts | 33° |
| 2026-05-06 09:43 | 3.46730 | 104.54373 | 39463 ft | 483 kts | 33° |
| 2026-05-06 09:43 | 3.49585 | 104.56149 | 39618 ft | 482 kts | 33° |
| 2026-05-06 09:43 | 3.52446 | 104.57925 | 39762 ft | 482 kts | 33° |
| 2026-05-06 09:44 | 3.58141 | 104.61461 | 39810 ft | 481 kts | 33° |
| 2026-05-06 09:44 | 3.63817 | 104.64987 | 39810 ft | 481 kts | 33° |
| 2026-05-06 09:45 | 3.69522 | 104.68533 | 39815 ft | 481 kts | 33° |
| 2026-05-06 09:45 | 3.75182 | 104.72052 | 39814 ft | 480 kts | 33° |
| 2026-05-06 09:46 | 3.80886 | 104.75600 | 39813 ft | 480 kts | 33° |
| 2026-05-06 09:46 | 3.86547 | 104.79128 | 39814 ft | 480 kts | 33° |
| 2026-05-06 09:47 | 3.92189 | 104.82637 | 39814 ft | 480 kts | 33° |
| 2026-05-06 09:47 | 3.97882 | 104.86178 | 39811 ft | 480 kts | 33° |
| 2026-05-06 09:48 | 4.03543 | 104.89700 | 39814 ft | 480 kts | 33° |
| 2026-05-06 09:48 | 4.09190 | 104.93216 | 39811 ft | 480 kts | 33° |
| 2026-05-06 09:49 | 4.14882 | 104.96761 | 39809 ft | 479 kts | 33° |
| 2026-05-06 09:49 | 4.20531 | 105.00280 | 39809 ft | 479 kts | 33° |
| 2026-05-06 09:50 | 4.26185 | 105.03804 | 39811 ft | 479 kts | 33° |
| 2026-05-06 09:50 | 4.31855 | 105.07321 | 39814 ft | 479 kts | 33° |
| 2026-05-06 09:51 | 4.37518 | 105.10836 | 39814 ft | 479 kts | 33° |
| 2026-05-06 09:51 | 4.43197 | 105.14364 | 39817 ft | 479 kts | 33° |
| 2026-05-06 09:52 | 4.48833 | 105.17867 | 39814 ft | 478 kts | 33° |
| 2026-05-06 09:52 | 4.54506 | 105.21395 | 39814 ft | 478 kts | 33° |
| 2026-05-06 09:53 | 4.60152 | 105.24907 | 39813 ft | 478 kts | 33° |
| 2026-05-06 09:53 | 4.65797 | 105.28418 | 39814 ft | 478 kts | 33° |
| 2026-05-06 09:54 | 4.71457 | 105.31940 | 39817 ft | 478 kts | 33° |
| 2026-05-06 09:54 | 4.77098 | 105.35450 | 39812 ft | 478 kts | 33° |
| 2026-05-06 09:55 | 4.82766 | 105.38985 | 39815 ft | 479 kts | 33° |
| 2026-05-06 09:55 | 4.88354 | 105.42605 | 39812 ft | 480 kts | 34° |
| 2026-05-06 09:56 | 4.93918 | 105.46259 | 39814 ft | 480 kts | 34° |
| 2026-05-06 09:56 | 4.99528 | 105.49930 | 39808 ft | 480 kts | 34° |
| 2026-05-06 09:57 | 5.05137 | 105.53586 | 39816 ft | 480 kts | 34° |
| 2026-05-06 09:57 | 5.10717 | 105.57219 | 39817 ft | 480 kts | 34° |
| 2026-05-06 09:58 | 5.16333 | 105.60876 | 39816 ft | 480 kts | 34° |
| 2026-05-06 09:58 | 5.21939 | 105.64528 | 39813 ft | 481 kts | 34° |
| 2026-05-06 09:59 | 5.27538 | 105.68176 | 39816 ft | 479 kts | 34° |
| 2026-05-06 09:59 | 5.33138 | 105.71825 | 39816 ft | 478 kts | 34° |
| 2026-05-06 10:00 | 5.38702 | 105.75453 | 39815 ft | 478 kts | 34° |
| 2026-05-06 10:00 | 5.44291 | 105.79097 | 39817 ft | 478 kts | 34° |
| 2026-05-06 10:01 | 5.49848 | 105.82722 | 39815 ft | 478 kts | 34° |
| 2026-05-06 10:01 | 5.55452 | 105.86378 | 39815 ft | 479 kts | 34° |
| 2026-05-06 10:02 | 5.61028 | 105.90016 | 39811 ft | 480 kts | 34° |
| 2026-05-06 10:02 | 5.66627 | 105.93670 | 39815 ft | 480 kts | 34° |
| 2026-05-06 10:03 | 5.72206 | 105.97313 | 39816 ft | 480 kts | 34° |
| 2026-05-06 10:03 | 5.77829 | 106.00984 | 39817 ft | 480 kts | 34° |
| 2026-05-06 10:04 | 5.83393 | 106.04618 | 39815 ft | 480 kts | 34° |
| 2026-05-06 10:04 | 5.89006 | 106.08285 | 39816 ft | 480 kts | 34° |
| 2026-05-06 10:05 | 5.94585 | 106.11931 | 39819 ft | 480 kts | 34° |
| 2026-05-06 10:05 | 6.00194 | 106.15597 | 39819 ft | 480 kts | 34° |
| 2026-05-06 10:06 | 6.05775 | 106.19246 | 39817 ft | 480 kts | 34° |
| 2026-05-06 10:06 | 6.11347 | 106.22889 | 39819 ft | 480 kts | 34° |
| 2026-05-06 10:07 | 6.16957 | 106.26558 | 39818 ft | 480 kts | 34° |
| 2026-05-06 10:07 | 6.22557 | 106.30223 | 39819 ft | 480 kts | 34° |
| 2026-05-06 10:08 | 6.28128 | 106.33869 | 39822 ft | 480 kts | 34° |
| 2026-05-06 10:08 | 6.33737 | 106.37540 | 39822 ft | 479 kts | 34° |
| 2026-05-06 10:09 | 6.39307 | 106.41187 | 39820 ft | 480 kts | 34° |
| 2026-05-06 10:09 | 6.44888 | 106.44842 | 39823 ft | 480 kts | 34° |
| 2026-05-06 10:10 | 6.50490 | 106.48513 | 39825 ft | 480 kts | 34° |
| 2026-05-06 10:10 | 6.56076 | 106.52173 | 39825 ft | 479 kts | 34° |
| 2026-05-06 10:11 | 6.61650 | 106.55826 | 39828 ft | 479 kts | 34° |
| 2026-05-06 10:11 | 6.67246 | 106.59496 | 39822 ft | 479 kts | 34° |
| 2026-05-06 10:12 | 6.72831 | 106.63158 | 39825 ft | 479 kts | 34° |
| 2026-05-06 10:12 | 6.78409 | 106.66818 | 39826 ft | 479 kts | 34° |
| 2026-05-06 10:13 | 6.84013 | 106.70495 | 39825 ft | 479 kts | 34° |
| 2026-05-06 10:13 | 6.89587 | 106.74154 | 39826 ft | 480 kts | 34° |
| 2026-05-06 10:14 | 6.95224 | 106.77717 | 39828 ft | 480 kts | 28° |
| 2026-05-06 10:14 | 7.01532 | 106.79971 | 39826 ft | 483 kts | 11° |
| 2026-05-06 10:15 | 7.08253 | 106.80183 | 39827 ft | 485 kts | 357° |
| 2026-05-06 10:15 | 7.14966 | 106.79530 | 39831 ft | 487 kts | 355° |
| 2026-05-06 10:16 | 7.21705 | 106.78754 | 39830 ft | 487 kts | 355° |
| 2026-05-06 10:16 | 7.28453 | 106.78002 | 39842 ft | 487 kts | 355° |
| 2026-05-06 10:17 | 7.35190 | 106.77281 | 39827 ft | 487 kts | 355° |
| 2026-05-06 10:17 | 7.41915 | 106.76572 | 39830 ft | 488 kts | 355° |
| 2026-05-06 10:18 | 7.48658 | 106.75861 | 39829 ft | 488 kts | 355° |
| 2026-05-06 10:18 | 7.55422 | 106.75146 | 39834 ft | 488 kts | 355° |
| 2026-05-06 10:19 | 7.62150 | 106.74434 | 39833 ft | 488 kts | 355° |
| 2026-05-06 10:19 | 7.68924 | 106.73717 | 39830 ft | 488 kts | 355° |
| 2026-05-06 10:20 | 7.75641 | 106.73006 | 39833 ft | 488 kts | 355° |
| 2026-05-06 10:20 | 7.82422 | 106.72288 | 39832 ft | 488 kts | 355° |
| 2026-05-06 10:21 | 7.89153 | 106.71575 | 39832 ft | 488 kts | 355° |
| 2026-05-06 10:21 | 7.95877 | 106.70863 | 39833 ft | 488 kts | 355° |
| 2026-05-06 10:22 | 8.02637 | 106.70146 | 39838 ft | 487 kts | 355° |
| 2026-05-06 10:22 | 8.09386 | 106.69430 | 39832 ft | 486 kts | 355° |
| 2026-05-06 10:23 | 8.14950 | 106.68840 | 39832 ft | 485 kts | 355° |
| 2026-05-06 10:23 | 8.22792 | 106.68008 | 39835 ft | 485 kts | 355° |
| 2026-05-06 10:24 | 8.28387 | 106.67414 | 39836 ft | 485 kts | 355° |
| 2026-05-06 10:24 | 8.35131 | 106.66698 | 39836 ft | 486 kts | 355° |
| 2026-05-06 10:25 | 8.41834 | 106.65986 | 39832 ft | 488 kts | 355° |
| 2026-05-06 10:25 | 8.48612 | 106.65266 | 39835 ft | 488 kts | 355° |
| 2026-05-06 10:26 | 8.55366 | 106.64549 | 39833 ft | 488 kts | 355° |
| 2026-05-06 10:26 | 8.62125 | 106.63830 | 39836 ft | 488 kts | 355° |
| 2026-05-06 10:27 | 8.68859 | 106.63114 | 39838 ft | 488 kts | 355° |
| 2026-05-06 10:27 | 8.75613 | 106.62717 | 39835 ft | 488 kts | 1° |
| 2026-05-06 10:28 | 8.82413 | 106.62757 | 39835 ft | 488 kts | 2° |
| 2026-05-06 10:28 | 8.89228 | 106.62826 | 39836 ft | 488 kts | 1° |
| 2026-05-06 10:29 | 8.96008 | 106.62900 | 39834 ft | 488 kts | 1° |
| 2026-05-06 10:29 | 9.02769 | 106.62975 | 39840 ft | 488 kts | 2° |
| 2026-05-06 10:30 | 9.09562 | 106.63052 | 39839 ft | 488 kts | 1° |
| 2026-05-06 10:30 | 9.16374 | 106.63129 | 39840 ft | 487 kts | 1° |
| 2026-05-06 10:31 | 9.23135 | 106.63205 | 39839 ft | 487 kts | 1° |
| 2026-05-06 10:31 | 9.29894 | 106.63282 | 39835 ft | 487 kts | 1° |
| 2026-05-06 10:32 | 9.36665 | 106.63359 | 39837 ft | 487 kts | 1° |
| 2026-05-06 10:32 | 9.43404 | 106.63995 | 39838 ft | 486 kts | 8° |
| 2026-05-06 10:33 | 9.50064 | 106.65035 | 39839 ft | 484 kts | 8° |
| 2026-05-06 10:33 | 9.56735 | 106.66075 | 39838 ft | 483 kts | 8° |
| 2026-05-06 10:34 | 9.63364 | 106.67103 | 39838 ft | 483 kts | 8° |
| 2026-05-06 10:34 | 9.70004 | 106.68132 | 39840 ft | 483 kts | 8° |
| 2026-05-06 10:35 | 9.76632 | 106.69159 | 39842 ft | 483 kts | 8° |
| 2026-05-06 10:35 | 9.83286 | 106.70189 | 39841 ft | 485 kts | 8° |
| 2026-05-06 10:36 | 9.89980 | 106.71227 | 39835 ft | 489 kts | 8° |
| 2026-05-06 10:36 | 9.96704 | 106.72270 | 39827 ft | 490 kts | 8° |
| 2026-05-06 10:37 | 10.00073 | 106.72793 | 39545 ft | 490 kts | 8° |
| 2026-05-06 10:37 | 10.03447 | 106.73317 | 39011 ft | 491 kts | 8° |
| 2026-05-06 10:37 | 10.06837 | 106.73843 | 38433 ft | 493 kts | 8° |
| 2026-05-06 10:37 | 10.10245 | 106.74371 | 37762 ft | 497 kts | 8° |
| 2026-05-06 10:38 | 10.13676 | 106.74912 | 37051 ft | 500 kts | 9° |
| 2026-05-06 10:38 | 10.17076 | 106.75730 | 36360 ft | 502 kts | 16° |
| 2026-05-06 10:38 | 10.20432 | 106.76716 | 35670 ft | 502 kts | 17° |
| 2026-05-06 10:38 | 10.23795 | 106.77723 | 35008 ft | 503 kts | 17° |
| 2026-05-06 10:39 | 10.27112 | 106.78714 | 34336 ft | 505 kts | 17° |
| 2026-05-06 10:39 | 10.30497 | 106.79720 | 33629 ft | 507 kts | 17° |
| 2026-05-06 10:39 | 10.33889 | 106.80726 | 32867 ft | 509 kts | 18° |
| 2026-05-06 10:39 | 10.37294 | 106.81734 | 32123 ft | 508 kts | 18° |
| 2026-05-06 10:40 | 10.40650 | 106.82726 | 31402 ft | 499 kts | 18° |
| 2026-05-06 10:40 | 10.43949 | 106.83700 | 30710 ft | 485 kts | 17° |
| 2026-05-06 10:40 | 10.47138 | 106.84642 | 30071 ft | 469 kts | 17° |
| 2026-05-06 10:40 | 10.50305 | 106.85251 | 29124 ft | 459 kts | 9° |
| 2026-05-06 10:41 | 10.53461 | 106.85698 | 27969 ft | 456 kts | 8° |
| 2026-05-06 10:41 | 10.56585 | 106.86126 | 26940 ft | 449 kts | 8° |
| 2026-05-06 10:41 | 10.59662 | 106.86553 | 25975 ft | 442 kts | 8° |
| 2026-05-06 10:41 | 10.62694 | 106.86981 | 25024 ft | 436 kts | 9° |
| 2026-05-06 10:42 | 10.65646 | 106.87401 | 24112 ft | 430 kts | 9° |
| 2026-05-06 10:42 | 10.68591 | 106.87822 | 23156 ft | 424 kts | 9° |
| 2026-05-06 10:42 | 10.71497 | 106.88239 | 22077 ft | 418 kts | 9° |
| 2026-05-06 10:42 | 10.74356 | 106.88650 | 21072 ft | 411 kts | 9° |
| 2026-05-06 10:43 | 10.77160 | 106.89053 | 20104 ft | 404 kts | 9° |
| 2026-05-06 10:43 | 10.79927 | 106.89451 | 19156 ft | 398 kts | 9° |
| 2026-05-06 10:43 | 10.82651 | 106.89844 | 18246 ft | 391 kts | 9° |
| 2026-05-06 10:44 | 10.87909 | 106.89258 | 16193 ft | 385 kts | 334° |
| 2026-05-06 10:44 | 10.90015 | 106.87671 | 15249 ft | 382 kts | 314° |
| 2026-05-06 10:44 | 10.91453 | 106.85496 | 14494 ft | 373 kts | 294° |
| 2026-05-06 10:44 | 10.92136 | 106.82990 | 13833 ft | 361 kts | 280° |
| 2026-05-06 10:45 | 10.92825 | 106.80581 | 13106 ft | 349 kts | 297° |
| 2026-05-06 10:45 | 10.94229 | 106.78621 | 12376 ft | 338 kts | 319° |
| 2026-05-06 10:45 | 10.96174 | 106.77386 | 11654 ft | 326 kts | 341° |
| 2026-05-06 10:45 | 10.98363 | 106.77021 | 10944 ft | 315 kts | 5° |
| 2026-05-06 10:46 | 11.00435 | 106.77554 | 10264 ft | 305 kts | 28° |
| 2026-05-06 10:46 | 11.02057 | 106.78866 | 9598 ft | 295 kts | 53° |
| 2026-05-06 10:46 | 11.02929 | 106.80685 | 9001 ft | 284 kts | 77° |
| 2026-05-06 10:46 | 11.02951 | 106.82667 | 8223 ft | 282 kts | 102° |
| 2026-05-06 10:47 | 11.02113 | 106.84457 | 7459 ft | 283 kts | 128° |
| 2026-05-06 10:47 | 11.00578 | 106.85683 | 6796 ft | 283 kts | 154° |
| 2026-05-06 10:47 | 10.98667 | 106.86108 | 6083 ft | 284 kts | 180° |
| 2026-05-06 10:47 | 10.96754 | 106.85747 | 5383 ft | 284 kts | 195° |
| 2026-05-06 10:48 | 10.94914 | 106.85048 | 4785 ft | 280 kts | 201° |
| 2026-05-06 10:48 | 10.93154 | 106.84266 | 4328 ft | 268 kts | 203° |
| 2026-05-06 10:48 | 10.91520 | 106.83500 | 4103 ft | 249 kts | 204° |
| 2026-05-06 10:48 | 10.90005 | 106.82771 | 3899 ft | 232 kts | 204° |
| 2026-05-06 10:49 | 10.88673 | 106.81934 | 3636 ft | 223 kts | 223° |
| 2026-05-06 10:49 | 10.87822 | 106.80609 | 3219 ft | 226 kts | 246° |
| 2026-05-06 10:49 | 10.87252 | 106.79130 | 2726 ft | 222 kts | 250° |
| 2026-05-06 10:49 | 10.86756 | 106.77666 | 2293 ft | 215 kts | 249° |
| 2026-05-06 10:50 | 10.86222 | 106.76276 | 1990 ft | 207 kts | 246° |
| 2026-05-06 10:50 | 10.85725 | 106.74951 | 1742 ft | 200 kts | 246° |
| 2026-05-06 10:50 | 10.85237 | 106.73640 | 1482 ft | 196 kts | 246° |
| 2026-05-06 10:50 | 10.84759 | 106.72367 | 1237 ft | 189 kts | 247° |
| 2026-05-06 10:51 | 10.84309 | 106.71169 | 1021 ft | 174 kts | 248° |
| 2026-05-06 10:51 | 10.83890 | 106.70053 | 808 ft | 165 kts | 249° |
| 2026-05-06 10:51 | 10.83496 | 106.69005 | 636 ft | 157 kts | 249° |
| 2026-05-06 10:51 | 10.83114 | 106.67993 | 422 ft | 152 kts | 250° |
| 2026-05-06 10:52 | 10.82738 | 106.67005 | 222 ft | 148 kts | 250° |
| 2026-05-06 10:52 | 10.82377 | 106.66035 | 56 ft | 146 kts | 250° |
| 2026-05-06 10:52 | 10.82037 | 106.65128 | 42 ft | 132 kts | 249° |
| 2026-05-06 10:52 | 10.81775 | 106.64436 | 43 ft | 65 kts | 249° |
| 2026-05-06 10:53 | 10.81646 | 106.64096 | 46 ft | 49 kts | 249° |
| 2026-05-06 10:53 | 10.81533 | 106.63797 | 49 ft | 30 kts | 249° |
| 2026-05-06 10:53 | 10.81452 | 106.63726 | 46 ft | 16 kts | 193° |
| 2026-05-06 10:53 | 10.81334 | 106.63704 | 44 ft | 20 kts | 189° |
| 2026-05-06 10:54 | 10.81188 | 106.63684 | 40 ft | 20 kts | 179° |
| 2026-05-06 10:54 | 10.81051 | 106.63723 | 40 ft | 21 kts | 161° |
| 2026-05-06 10:54 | 10.80944 | 106.63803 | 42 ft | 19 kts | 117° |
| 2026-05-06 10:54 | 10.80936 | 106.63932 | 43 ft | 19 kts | 68° |
| 2026-05-06 10:55 | 10.80988 | 106.64060 | 43 ft | 21 kts | 69° |
| 2026-05-06 10:55 | 10.81041 | 106.64200 | 43 ft | 22 kts | 69° |
| 2026-05-06 10:55 | 10.81094 | 106.64341 | 44 ft | 21 kts | 69° |
| 2026-05-06 10:55 | 10.81149 | 106.64487 | 44 ft | 23 kts | 69° |
| 2026-05-06 10:56 | 10.81206 | 106.64637 | 45 ft | 24 kts | 69° |
| 2026-05-06 10:56 | 10.81267 | 106.64798 | 45 ft | 25 kts | 69° |
| 2026-05-06 10:56 | 10.81324 | 106.64949 | 45 ft | 21 kts | 69° |
| 2026-05-06 10:56 | 10.81378 | 106.65089 | 44 ft | 22 kts | 69° |
| 2026-05-06 10:57 | 10.81429 | 106.65226 | 46 ft | 17 kts | 69° |
| 2026-05-06 10:57 | 10.81474 | 106.65346 | 45 ft | 19 kts | 69° |
| 2026-05-06 10:57 | 10.81523 | 106.65476 | 44 ft | 21 kts | 69° |
| 2026-05-06 10:57 | 10.81577 | 106.65618 | 43 ft | 22 kts | 69° |
| 2026-05-06 10:58 | 10.81633 | 106.65767 | 42 ft | 20 kts | 69° |
| 2026-05-06 10:58 | 10.81685 | 106.65905 | 46 ft | 20 kts | 69° |
| 2026-05-06 10:58 | 10.81734 | 106.66035 | 43 ft | 21 kts | 69° |
| 2026-05-06 10:58 | 10.81782 | 106.66163 | 45 ft | 14 kts | 69° |
| 2026-05-06 10:59 | 10.81781 | 106.66215 | 45 ft | 6 kts | 134° |
| 2026-05-06 10:59 | 10.81735 | 106.66233 | 43 ft | 8 kts | 161° |
| 2026-05-06 10:59 | 10.81709 | 106.66242 | 44 ft | 0 kts | 161° |